Time;durP1;ratioP1;P1;durP2;ratioP2;P2;SDS_P1;SDS_P2;PMS_P1;PMS_P2;Temp;Humidity;BMP_temperature;BMP_pressure;BME280_temperature;BME280_humidity;BME280_pressure;Samples;Min_cycle;Max_cycle;Signal;HPM_P1;HPM_P2
2021/01/09 00:01:04;;;;;;;24.25;15.98;;;;;;;1.71;65.59;96439.69;1722796;82;21112;-49
2021/01/09 00:03:32;;;;;;;25.13;15.93;;;;;;;1.77;65.19;96444.55;1743802;81;21561;-49
2021/01/09 00:05:59;;;;;;;27.55;17.00;;;;;;;1.77;64.98;96445.01;1721914;82;21200;-49
2021/01/09 00:08:27;;;;;;;38.65;20.88;;;;;;;1.79;64.84;96443.22;1781056;79;21732;-49
2021/01/09 00:10:54;;;;;;;42.58;23.20;;;;;;;1.82;64.73;96441.37;1771406;79;21212;-50
2021/01/09 00:13:22;;;;;;;45.38;24.98;;;;;;;1.83;64.52;96446.06;1719497;82;21154;-51
2021/01/09 00:15:50;;;;;;;48.58;25.77;;;;;;;1.83;64.50;96448.62;1707584;82;21233;-50
2021/01/09 00:18:17;;;;;;;49.05;25.65;;;;;;;1.81;64.73;96451.69;1716887;82;21102;-50
2021/01/09 00:20:45;;;;;;;52.85;27.85;;;;;;;1.87;64.82;96448.05;1781998;79;21046;-50
2021/01/09 00:23:12;;;;;;;47.60;25.77;;;;;;;1.90;64.57;96447.48;1768862;79;21224;-50
2021/01/09 00:25:40;;;;;;;55.43;26.12;;;;;;;1.93;64.59;96448.65;1776732;79;21597;-50
2021/01/09 00:28:07;;;;;;;56.92;27.32;;;;;;;1.93;64.36;96447.37;1778742;79;21185;-50
2021/01/09 00:30:35;;;;;;;47.38;25.27;;;;;;;1.88;64.38;96449.28;1773713;79;21521;-50
2021/01/09 00:33:02;;;;;;;44.77;24.82;;;;;;;1.86;64.33;96450.21;1788282;79;21578;-51
2021/01/09 00:35:30;;;;;;;47.93;25.55;;;;;;;1.82;64.26;96451.60;1779487;79;21699;-50
2021/01/09 00:37:57;;;;;;;41.58;22.98;;;;;;;1.82;64.45;96452.88;1781896;79;21133;-49
2021/01/09 00:40:25;;;;;;;37.83;20.90;;;;;;;1.87;64.39;96455.73;1775961;79;21488;-50
2021/01/09 00:42:52;;;;;;;36.55;20.68;;;;;;;1.91;64.28;96459.82;1795963;79;21145;-50
2021/01/09 00:45:21;;;;;;;35.35;20.02;;;;;;;1.93;64.24;96456.33;1793040;79;21115;-50
2021/01/09 00:47:48;;;;;;;35.98;20.25;;;;;;;1.95;64.01;96464.77;1779065;79;22368;-51
2021/01/09 00:50:17;;;;;;;30.25;18.17;;;;;;;1.94;63.99;96464.83;1777333;79;21078;-50
2021/01/09 00:52:45;;;;;;;27.98;16.15;;;;;;;1.94;64.04;96464.40;1779818;79;21490;-50
2021/01/09 00:55:14;;;;;;;27.95;16.65;;;;;;;1.94;64.03;96462.27;1785889;79;21545;-51
2021/01/09 00:57:42;;;;;;;24.43;15.83;;;;;;;1.95;64.13;96466.05;1779506;79;21117;-50
2021/01/09 01:00:11;;;;;;;25.20;15.40;;;;;;;2.01;64.08;96467.55;1789177;79;21182;-49
2021/01/09 01:02:39;;;;;;;24.52;15.13;;;;;;;2.08;63.86;96461.30;1786576;78;21054;-50
2021/01/09 01:05:09;;;;;;;22.43;13.77;;;;;;;2.11;63.83;96463.74;1788034;79;21098;-49
2021/01/09 01:07:36;;;;;;;22.15;13.70;;;;;;;2.17;63.74;96467.35;1780485;79;21527;-50
2021/01/09 01:10:06;;;;;;;22.07;14.80;;;;;;;2.21;63.33;96459.92;1779118;79;21529;-49
2021/01/09 01:12:34;;;;;;;22.10;14.63;;;;;;;2.15;62.56;96452.47;1788861;79;21197;-49
2021/01/09 01:15:05;;;;;;;21.03;13.50;;;;;;;2.06;62.47;96455.87;1780822;79;21202;-50
2021/01/09 01:17:32;;;;;;;20.95;13.08;;;;;;;1.98;62.64;96451.86;1803708;79;21097;-49
2021/01/09 01:20:00;;;;;;;21.05;11.93;;;;;;;1.91;62.65;96449.59;1791099;79;21676;-49
2021/01/09 01:22:28;;;;;;;17.05;10.72;;;;;;;1.79;62.69;96453.02;1777436;79;21041;-50
2021/01/09 01:24:55;;;;;;;13.62;9.93;;;;;;;1.72;62.57;96449.47;1777939;79;21331;-49
2021/01/09 01:27:23;;;;;;;14.58;9.85;;;;;;;1.64;62.67;96449.74;1737457;81;21104;-49
2021/01/09 01:29:51;;;;;;;11.60;8.83;;;;;;;1.68;62.55;96446.62;1777996;79;21164;-49
2021/01/09 01:32:18;;;;;;;13.38;8.88;;;;;;;1.76;62.04;96444.19;1783200;79;21999;-49
2021/01/09 01:34:46;;;;;;;13.38;8.93;;;;;;;1.86;61.87;96450.21;1783079;80;21040;-49
2021/01/09 01:37:13;;;;;;;14.60;10.82;;;;;;;1.96;61.67;96444.70;1783025;79;21564;-49
2021/01/09 01:39:41;;;;;;;14.75;10.15;;;;;;;2.08;61.79;96445.94;1783072;80;21550;-50
2021/01/09 01:42:09;;;;;;;17.92;11.22;;;;;;;2.15;61.63;96447.81;1783094;79;21046;-50
2021/01/09 01:44:38;;;;;;;15.83;10.68;;;;;;;2.23;61.31;96443.22;1782885;80;21147;-49
2021/01/09 01:47:06;;;;;;;14.28;10.43;;;;;;;2.31;60.97;96441.65;1783014;80;21473;-49
2021/01/09 01:49:34;;;;;;;14.27;10.23;;;;;;;2.34;60.54;96441.07;1783382;80;21303;-50
2021/01/09 01:52:02;;;;;;;15.47;10.50;;;;;;;2.36;60.40;96446.13;1783423;80;21554;-49
2021/01/09 01:54:30;;;;;;;17.17;11.20;;;;;;;2.38;60.34;96444.34;1803672;78;21106;-50
2021/01/09 01:56:58;;;;;;;17.60;11.25;;;;;;;2.42;60.49;96445.04;1805004;78;21079;-49
2021/01/09 01:59:25;;;;;;;17.10;11.43;;;;;;;2.44;60.48;96443.27;1802420;79;21942;-49
2021/01/09 02:01:53;;;;;;;19.85;11.28;;;;;;;2.47;60.54;96443.97;1783353;79;21528;-49
2021/01/09 02:04:21;;;;;;;17.02;10.70;;;;;;;2.49;60.31;96437.52;1806015;79;22008;-50
2021/01/09 02:06:48;;;;;;;14.90;10.28;;;;;;;2.49;60.32;96436.23;1815294;79;21037;-50
2021/01/09 02:09:21;;;;;;;18.55;10.95;;;;;;;2.49;60.10;96440.90;1814110;79;21482;-49
2021/01/09 02:12:13;;;;;;;13.93;9.85;;;;;;;2.51;59.64;96437.00;1815369;79;21041;-49
2021/01/09 02:14:45;;;;;;;15.25;9.78;;;;;;;2.53;59.62;96439.89;1787756;79;22175;-50
2021/01/09 02:17:13;;;;;;;13.28;10.23;;;;;;;2.54;59.49;96431.29;1815264;79;21100;-49
2021/01/09 02:19:44;;;;;;;16.55;11.12;;;;;;;2.56;58.94;96434.62;1786432;79;21111;-49
2021/01/09 02:22:15;;;;;;;18.15;11.73;;;;;;;2.47;58.70;96432.91;1815426;79;21140;-50
2021/01/09 02:24:45;;;;;;;29.42;16.48;;;;;;;2.44;59.24;96427.91;1814686;79;21085;-49
2021/01/09 02:27:13;;;;;;;16.75;11.12;;;;;;;2.45;58.97;96434.67;1815399;79;21196;-50
2021/01/09 02:29:54;;;;;;;19.35;11.20;;;;;;;2.44;58.43;96433.03;1811052;78;21681;-50
2021/01/09 02:32:26;;;;;;;15.80;10.95;;;;;;;2.43;58.27;96437.30;1797514;79;21129;-49
2021/01/09 02:34:57;;;;;;;13.15;9.60;;;;;;;2.45;58.61;96441.93;1797718;79;21042;-49
2021/01/09 02:37:26;;;;;;;15.88;9.95;;;;;;;2.43;58.46;96442.42;1797859;79;21459;-50
2021/01/09 02:39:54;;;;;;;13.32;8.93;;;;;;;2.38;58.74;96450.31;1797861;79;21193;-48
2021/01/09 02:42:21;;;;;;;12.28;9.03;;;;;;;2.36;58.58;96454.64;1763882;81;21597;-49
2021/01/09 02:44:51;;;;;;;13.95;9.28;;;;;;;2.32;58.98;96445.43;1767378;79;21184;-49
2021/01/09 02:47:20;;;;;;;12.28;8.93;;;;;;;2.33;58.53;96447.08;1766104;81;21062;-49
2021/01/09 02:49:48;;;;;;;11.22;8.30;;;;;;;2.27;58.25;96446.48;1766348;81;21070;-49
2021/01/09 02:52:15;;;;;;;10.72;7.20;;;;;;;2.21;58.57;96452.23;1766185;81;21199;-49
2021/01/09 02:54:43;;;;;;;9.58;6.97;;;;;;;2.23;57.80;96453.92;1766083;81;22061;-49
2021/01/09 02:57:10;;;;;;;10.43;7.03;;;;;;;2.20;56.66;96448.45;1766214;81;21117;-49
2021/01/09 02:59:39;;;;;;;9.73;7.55;;;;;;;2.22;56.25;96451.81;1781008;79;21597;-49
2021/01/09 03:02:07;;;;;;;10.30;7.22;;;;;;;2.27;55.69;96449.91;1771014;79;21478;-49
2021/01/09 03:04:35;;;;;;;10.90;7.50;;;;;;;2.33;55.85;96452.20;1795113;79;21347;-49
2021/01/09 03:07:04;;;;;;;7.50;5.33;;;;;;;2.41;55.77;96449.80;1797751;79;21140;-49
2021/01/09 03:09:33;;;;;;;7.83;6.00;;;;;;;2.44;53.92;96453.52;1796388;79;21557;-49
2021/01/09 03:12:01;;;;;;;10.20;6.08;;;;;;;2.47;53.10;96452.94;1797630;79;21129;-49
2021/01/09 03:14:28;;;;;;;7.65;5.72;;;;;;;2.48;53.93;96454.59;1772580;79;21097;-49
2021/01/09 03:16:56;;;;;;;8.15;5.72;;;;;;;2.48;53.27;96453.30;1768210;80;21550;-49
2021/01/09 03:19:24;;;;;;;6.53;5.67;;;;;;;2.48;53.22;96450.74;1795655;80;21111;-49
2021/01/09 03:21:54;;;;;;;7.72;5.53;;;;;;;2.50;53.82;96454.09;1795832;79;26435;-50
2021/01/09 03:24:21;;;;;;;10.13;5.80;;;;;;;2.50;53.22;96448.98;1770944;79;21137;-49
2021/01/09 03:26:49;;;;;;;8.95;6.35;;;;;;;2.50;53.50;96450.69;1714270;83;21091;-50
2021/01/09 03:29:16;;;;;;;7.50;5.75;;;;;;;2.50;53.31;96455.38;1709762;82;21211;-50
2021/01/09 03:31:44;;;;;;;7.85;6.00;;;;;;;2.50;53.36;96455.81;1766332;79;21133;-50
2021/01/09 03:34:11;;;;;;;8.25;5.42;;;;;;;2.51;53.31;96451.91;1767606;80;21105;-49
2021/01/09 03:36:39;;;;;;;9.18;6.08;;;;;;;2.54;53.36;96454.80;1795672;80;21068;-49
2021/01/09 03:39:06;;;;;;;7.65;5.67;;;;;;;2.55;53.09;96456.02;1795660;79;21234;-49
2021/01/09 03:41:35;;;;;;;8.33;6.15;;;;;;;2.55;52.98;96455.20;1795829;80;21351;-49
2021/01/09 03:44:04;;;;;;;8.10;6.23;;;;;;;2.54;52.75;96460.75;1773989;79;21125;-49
2021/01/09 03:46:31;;;;;;;7.50;5.00;;;;;;;2.51;53.04;96460.05;1690640;83;21169;-49
2021/01/09 03:48:59;;;;;;;5.35;3.95;;;;;;;2.50;52.21;96463.48;1709060;82;22081;-50
2021/01/09 03:51:26;;;;;;;4.28;3.50;;;;;;;2.48;50.65;96471.23;1753329;79;21466;-50
2021/01/09 03:53:54;;;;;;;3.70;3.22;;;;;;;2.47;49.64;96473.42;1713175;82;22219;-51
2021/01/09 03:56:21;;;;;;;3.45;3.02;;;;;;;2.47;49.70;96472.15;1709029;83;21149;-50
2021/01/09 03:58:49;;;;;;;3.23;2.80;;;;;;;2.48;49.37;96467.84;1766375;81;21208;-50
2021/01/09 04:01:17;;;;;;;2.65;2.40;;;;;;;2.51;48.90;96471.57;1758677;79;21056;-50
2021/01/09 04:03:44;;;;;;;2.67;2.25;;;;;;;2.56;48.64;96475.59;1734431;82;21469;-54
2021/01/09 04:06:12;;;;;;;2.60;2.30;;;;;;;2.59;48.44;96479.78;1703523;82;21830;-50
2021/01/09 04:08:40;;;;;;;2.87;2.22;;;;;;;2.61;47.93;96483.10;1734361;82;21148;-49
2021/01/09 04:11:08;;;;;;;1.70;1.60;;;;;;;2.62;47.18;96483.50;1703736;84;21075;-49
2021/01/09 04:13:36;;;;;;;1.90;1.67;;;;;;;2.62;47.10;96487.80;1723915;82;21053;-49
2021/01/09 04:16:04;;;;;;;1.60;1.45;;;;;;;2.62;46.42;96489.91;1704251;82;21626;-49
2021/01/09 04:18:32;;;;;;;2.15;1.95;;;;;;;2.65;45.27;96492.34;1729615;81;22288;-49
2021/01/09 04:21:01;;;;;;;;;;;;;;;2.66;45.66;96494.45;1721951;81;21112;-49
2021/01/09 04:23:29;;;;;;;1.67;1.57;;;;;;;2.65;45.31;96495.33;1714366;82;20239;-49
2021/01/09 04:25:56;;;;;;;2.62;1.72;;;;;;;2.68;45.12;96493.94;1714197;82;21097;-49
2021/01/09 04:28:24;;;;;;;2.15;1.95;;;;;;;2.71;45.12;96496.38;1733154;81;21120;-48
2021/01/09 04:30:51;;;;;;;1.80;1.70;;;;;;;2.72;44.86;96495.03;1746326;81;21378;-49
2021/01/09 04:33:19;;;;;;;1.50;1.40;;;;;;;2.73;44.67;96494.15;1782695;79;21153;-49
2021/01/09 04:35:46;;;;;;;1.65;1.55;;;;;;;2.74;44.12;96494.52;1774266;80;21466;-49
2021/01/09 04:38:15;;;;;;;;;;;;;;;2.69;43.89;96490.03;1776844;80;21049;-50
2021/01/09 04:40:43;;;;;;;3.33;1.85;;;;;;;2.65;44.56;96496.19;1774334;80;20243;-49
2021/01/09 04:43:11;;;;;;;2.37;2.12;;;;;;;2.62;44.55;96493.75;1784499;79;21371;-49
2021/01/09 04:45:39;;;;;;;2.00;1.85;;;;;;;2.63;44.39;96492.86;1752667;80;21089;-49
2021/01/09 04:48:07;;;;;;;1.77;1.67;;;;;;;2.60;43.63;96498.11;1774554;80;21034;-50
2021/01/09 04:50:35;;;;;;;1.95;1.70;;;;;;;2.53;43.28;96497.95;1774323;80;21727;-50
2021/01/09 04:53:02;;;;;;;2.42;1.95;;;;;;;2.51;43.76;96505.69;1744754;79;21549;-51
2021/01/09 04:55:30;;;;;;;2.02;1.80;;;;;;;2.50;43.24;96505.75;1734463;80;21330;-49
2021/01/09 04:58:01;;;;;;;2.92;2.10;;;;;;;2.41;43.48;96502.30;1774129;79;21089;-50
2021/01/09 05:00:29;;;;;;;3.67;2.70;;;;;;;2.38;43.65;96501.95;1774874;79;21061;-49
2021/01/09 05:02:58;;;;;;;6.08;4.37;;;;;;;2.42;44.92;96503.94;1774264;80;21076;-50
2021/01/09 05:05:27;;;;;;;7.15;5.08;;;;;;;2.41;45.45;96509.52;1766053;79;21038;-48
2021/01/09 05:07:56;;;;;;;8.58;5.97;;;;;;;2.34;45.64;96508.92;1806021;78;21085;-49
2021/01/09 05:10:24;;;;;;;9.10;6.58;;;;;;;2.23;46.30;96511.52;1806193;79;21518;-49
2021/01/09 05:12:52;;;;;;;9.50;6.22;;;;;;;2.12;46.89;96511.92;1774342;79;21145;-49
2021/01/09 05:15:20;;;;;;;8.03;6.33;;;;;;;2.06;47.46;96514.28;1793746;79;21152;-49
2021/01/09 05:17:47;;;;;;;9.33;6.53;;;;;;;2.01;47.77;96515.73;1806139;79;21057;-49
2021/01/09 05:20:15;;;;;;;7.30;5.50;;;;;;;2.00;48.04;96526.02;1788402;79;21143;-49
2021/01/09 05:22:42;;;;;;;7.75;5.40;;;;;;;1.90;47.38;96522.14;1737449;82;21092;-49
2021/01/09 05:25:12;;;;;;;6.28;4.87;;;;;;;1.81;47.66;96529.27;1774770;79;21156;-49
2021/01/09 05:27:39;;;;;;;6.42;5.03;;;;;;;1.77;47.76;96532.81;1721066;80;21065;-49
2021/01/09 05:30:09;;;;;;;6.72;4.90;;;;;;;1.74;47.99;96529.08;1733936;80;21057;-49
2021/01/09 05:32:37;;;;;;;6.50;4.47;;;;;;;1.74;48.05;96538.03;1782648;80;21186;-49
2021/01/09 05:35:07;;;;;;;6.05;4.70;;;;;;;1.73;47.91;96537.66;1730596;80;21493;-50
2021/01/09 05:37:35;;;;;;;6.20;4.45;;;;;;;1.81;47.52;96538.22;1737593;82;21101;-50
2021/01/09 05:40:05;;;;;;;5.95;4.37;;;;;;;1.81;47.52;96538.22;1730945;82;21095;-50
2021/01/09 05:42:34;;;;;;;5.17;4.15;;;;;;;1.84;47.55;96537.25;1743380;82;21143;-50
2021/01/09 05:45:03;;;;;;;5.72;4.37;;;;;;;1.91;47.47;96543.84;1748888;81;21145;-50
2021/01/09 05:47:31;;;;;;;;;;;;;;;1.97;47.31;96546.60;1771718;80;21156;-49
2021/01/09 05:50:00;;;;;;;6.12;4.60;;;;;;;2.03;48.26;96546.38;1746118;80;20318;-49
2021/01/09 05:52:28;;;;;;;;;;;;;;;2.06;48.31;96552.67;1745882;82;21136;-49
2021/01/09 05:54:58;;;;;;;8.98;5.97;;;;;;;2.09;48.91;96557.68;1735554;82;20246;-50
2021/01/09 05:57:28;;;;;;;;;;;;;;;2.14;48.76;96557.52;1776654;81;22186;-49
2021/01/09 06:00:03;;;;;;;8.83;5.83;;;;;;;2.20;48.50;96562.38;1724734;82;20544;-49
2021/01/09 06:02:42;;;;;;;7.03;5.53;;;;;;;2.19;47.45;96567.12;1801948;79;21116;-50
2021/01/09 06:05:10;;;;;;;8.88;5.75;;;;;;;2.09;47.57;96564.50;1790809;79;21131;-49
2021/01/09 06:07:37;;;;;;;10.25;5.75;;;;;;;2.05;47.45;96562.96;1815314;79;21053;-50
2021/01/09 06:10:11;;;;;;;9.70;5.53;;;;;;;2.02;47.36;96563.89;1797414;78;21760;-49
2021/01/09 06:13:00;;;;;;;10.18;6.15;;;;;;;2.01;47.71;96567.36;1715749;82;21064;-51
2021/01/09 06:15:30;;;;;;;8.38;5.50;;;;;;;2.02;47.69;96567.73;1790519;79;21065;-51
2021/01/09 06:18:00;;;;;;;8.28;5.10;;;;;;;1.97;47.72;96567.08;1783134;79;21073;-49
2021/01/09 06:20:29;;;;;;;6.83;4.80;;;;;;;1.93;47.49;96571.48;1783735;79;21048;-49
2021/01/09 06:22:58;;;;;;;7.60;5.20;;;;;;;1.80;47.46;96571.08;1742429;81;21376;-50
2021/01/09 06:25:28;;;;;;;7.22;4.87;;;;;;;1.70;48.12;96577.88;1743019;82;21481;-50
2021/01/09 06:28:01;;;;;;;7.17;4.97;;;;;;;1.71;48.02;96576.55;1764494;81;21086;-49
2021/01/09 06:30:31;;;;;;;6.30;4.62;;;;;;;1.70;48.30;96576.14;1809514;78;21081;-50
2021/01/09 06:33:03;;;;;;;7.20;4.50;;;;;;;1.69;47.73;96577.47;1766042;80;21173;-51
2021/01/09 06:35:33;;;;;;;7.87;5.20;;;;;;;1.65;48.12;96581.86;1766132;81;21366;-50
2021/01/09 06:38:01;;;;;;;4.50;4.05;;;;;;;1.60;48.21;96577.36;1766139;81;21200;-52
2021/01/09 06:40:30;;;;;;;7.17;4.17;;;;;;;1.57;48.30;96578.74;1766437;81;21498;-50
2021/01/09 06:42:58;;;;;;;5.72;4.05;;;;;;;1.51;48.42;96582.33;1782955;79;21078;-50
2021/01/09 06:45:25;;;;;;;8.08;4.45;;;;;;;1.45;48.55;96586.41;1764693;80;21074;-50
2021/01/09 06:48:00;;;;;;;5.58;4.37;;;;;;;1.41;48.64;96586.92;1769260;79;21895;-51
2021/01/09 06:50:33;;;;;;;5.72;4.03;;;;;;;1.46;48.81;96585.49;1778667;79;21077;-50
2021/01/09 06:53:02;;;;;;;9.70;4.60;;;;;;;1.53;48.60;96583.56;1797512;79;21630;-51
2021/01/09 06:55:41;;;;;;;254.85;188.70;;;;;;;1.60;48.48;96590.15;1777938;79;21055;-51
2021/01/09 06:58:10;;;;;;;74.97;44.77;;;;;;;1.69;49.04;96594.09;1774174;79;21064;-52
2021/01/09 07:00:38;;;;;;;8.48;6.33;;;;;;;1.81;47.91;96593.68;1733232;82;21374;-52
2021/01/09 07:03:14;;;;;;;7.75;5.10;;;;;;;1.84;48.43;96594.40;1704465;82;21078;-50
2021/01/09 07:05:46;;;;;;;6.37;4.50;;;;;;;1.88;47.49;96599.41;1709182;84;21646;-50
2021/01/09 07:08:24;;;;;;;8.43;4.95;;;;;;;1.82;47.34;96599.99;1771436;79;21038;-51
2021/01/09 07:10:55;;;;;;;11.90;5.62;;;;;;;1.76;47.61;96600.66;1775893;79;21514;-50
2021/01/09 07:13:22;;;;;;;12.55;5.35;;;;;;;1.77;47.37;96607.00;1787555;79;21190;-49
2021/01/09 07:16:10;;;;;;;7.25;5.70;;;;;;;1.77;47.66;96600.61;1769173;79;21141;-51
2021/01/09 07:18:42;;;;;;;12.77;6.00;;;;;;;1.80;48.19;96610.73;1793977;79;21058;-51
2021/01/09 07:21:11;;;;;;;8.33;5.35;;;;;;;1.82;48.06;96614.06;1791117;79;21066;-51
2021/01/09 07:23:39;;;;;;;5.95;4.58;;;;;;;1.81;48.47;96618.81;1773347;79;21030;-51
2021/01/09 07:26:07;;;;;;;5.72;4.65;;;;;;;1.83;48.10;96620.03;1762696;79;21363;-51
2021/01/09 07:28:36;;;;;;;6.62;4.75;;;;;;;1.83;48.36;96617.02;1743089;79;21121;-51
2021/01/09 07:31:13;;;;;;;5.17;3.58;;;;;;;1.86;48.33;96610.98;1704542;80;21094;-50
2021/01/09 07:33:44;;;;;;;4.87;3.90;;;;;;;1.88;47.60;96609.65;1724445;82;21129;-50
2021/01/09 07:36:15;;;;;;;4.97;3.58;;;;;;;1.78;47.97;96610.41;1766926;78;21597;-51
2021/01/09 07:38:46;;;;;;;5.12;4.00;;;;;;;1.71;48.04;96612.35;1739911;79;21213;-52
2021/01/09 07:41:34;;;;;;;6.37;3.62;;;;;;;1.66;48.09;96619.33;1760724;79;21117;-52
2021/01/09 07:44:19;;;;;;;6.12;3.72;;;;;;;1.69;48.01;96615.38;1776391;79;21094;-51
2021/01/09 07:46:55;;;;;;;8.43;4.47;;;;;;;1.75;48.11;96627.14;1778095;79;21057;-51
2021/01/09 07:49:31;;;;;;;6.97;4.90;;;;;;;1.86;47.51;96619.94;1775879;79;21149;-51
2021/01/09 07:52:07;;;;;;;6.03;4.35;;;;;;;2.01;47.99;96621.94;1778028;79;21595;-50
2021/01/09 07:54:40;;;;;;;5.12;3.90;;;;;;;2.25;47.77;96618.53;1773834;79;21065;-50
2021/01/09 07:57:22;;;;;;;5.53;4.00;;;;;;;2.52;46.71;96621.80;1760399;79;21045;-52
2021/01/09 08:00:02;;;;;;;4.62;3.70;;;;;;;2.78;46.14;96622.52;1770296;79;21165;-52
2021/01/09 08:02:37;;;;;;;8.00;4.80;;;;;;;2.94;44.50;96623.58;1778387;79;21038;-52
2021/01/09 08:05:20;;;;;;;5.87;4.60;;;;;;;3.01;44.26;96628.02;1779551;79;21376;-51
2021/01/09 08:07:52;;;;;;;3.98;3.58;;;;;;;3.10;44.39;96630.22;1775683;79;21059;-52
2021/01/09 08:10:28;;;;;;;7.33;3.50;;;;;;;3.43;43.75;96635.70;1768430;79;21189;-51
2021/01/09 08:13:02;;;;;;;5.17;3.50;;;;;;;3.82;42.62;96638.78;1762213;79;21085;-51
2021/01/09 08:15:31;;;;;;;4.90;4.05;;;;;;;4.56;41.21;96638.55;1776042;79;21038;-51
2021/01/09 08:18:00;;;;;;;6.03;3.70;;;;;;;5.05;40.39;96638.83;1770942;79;21192;-53
2021/01/09 08:20:28;;;;;;;5.62;3.60;;;;;;;5.40;39.05;96638.04;1769834;79;21141;-51
2021/01/09 08:23:03;;;;;;;4.12;3.37;;;;;;;5.47;38.87;96639.39;1775807;79;21058;-52
2021/01/09 08:25:33;;;;;;;3.58;3.22;;;;;;;5.39;37.88;96644.08;1769508;79;21637;-52
2021/01/09 08:28:02;;;;;;;4.95;3.37;;;;;;;5.15;38.23;96646.48;1776727;79;21140;-52
2021/01/09 08:30:35;;;;;;;5.55;3.70;;;;;;;5.18;38.26;96646.80;1782493;79;21378;-52
2021/01/09 08:33:06;;;;;;;5.75;4.35;;;;;;;5.32;38.14;96643.55;1782314;79;21125;-53
2021/01/09 08:35:36;;;;;;;4.83;4.25;;;;;;;5.97;37.11;96645.07;1715199;82;21131;-52
2021/01/09 08:38:04;;;;;;;4.53;3.67;;;;;;;6.92;35.39;96647.37;1713106;82;21157;-51
2021/01/09 08:40:32;;;;;;;4.55;3.90;;;;;;;8.05;33.84;96650.38;1763078;79;21561;-51
2021/01/09 08:43:05;;;;;;;;;;;;;;;9.03;32.21;96646.14;1789911;79;22279;-52
2021/01/09 08:45:40;;;;;;;3.58;3.02;;;;;;;9.83;30.13;96644.00;1776020;79;20637;-51
2021/01/09 08:48:23;;;;;;;3.50;2.83;;;;;;;10.57;30.36;96639.49;1778600;79;21049;-51
2021/01/09 08:51:02;;;;;;;3.85;3.30;;;;;;;11.36;28.01;96644.65;1775445;79;21557;-51
2021/01/09 08:53:58;;;;;;;3.90;3.02;;;;;;;11.88;27.81;96645.66;1776876;79;21069;-51
2021/01/09 08:56:27;;;;;;;4.17;3.60;;;;;;;12.04;26.93;96641.00;1772334;79;21377;-51
2021/01/09 08:59:00;;;;;;;4.30;3.30;;;;;;;12.09;26.71;96640.17;1774601;79;21588;-51
2021/01/09 09:01:33;;;;;;;4.37;3.00;;;;;;;12.22;26.98;96637.47;1762762;79;21517;-51
2021/01/09 09:04:02;;;;;;;2.98;2.67;;;;;;;12.81;26.38;96633.78;1783448;79;21146;-51
2021/01/09 09:06:32;;;;;;;3.98;3.45;;;;;;;13.44;23.84;96637.88;1743486;79;22176;-51
2021/01/09 09:09:01;;;;;;;5.33;3.42;;;;;;;13.61;24.43;96634.37;1766190;79;22313;-51
2021/01/09 09:11:29;;;;;;;4.37;2.52;;;;;;;13.97;24.89;96638.80;1781807;79;21457;-52
2021/01/09 09:14:07;;;;;;;3.63;2.57;;;;;;;14.76;23.59;96629.56;1773114;79;21058;-51
2021/01/09 09:16:36;;;;;;;2.58;2.30;;;;;;;15.26;22.02;96632.95;1785344;79;21118;-52
2021/01/09 09:19:13;;;;;;;2.22;2.10;;;;;;;15.09;22.07;96623.16;1768884;79;21628;-50
2021/01/09 09:21:57;;;;;;;3.45;2.10;;;;;;;14.66;21.76;96629.05;1711190;82;22424;-51
2021/01/09 09:24:45;;;;;;;1.85;1.60;;;;;;;14.31;22.93;96628.14;1707514;82;21554;-52
2021/01/09 09:27:26;;;;;;;2.30;2.03;;;;;;;14.54;22.68;96625.67;1731370;81;21163;-51
2021/01/09 09:30:14;;;;;;;3.08;2.30;;;;;;;15.34;22.20;96628.82;1712598;82;21145;-50
2021/01/09 09:32:43;;;;;;;2.52;2.33;;;;;;;16.19;21.71;96620.70;1717562;80;21125;-51
2021/01/09 09:35:29;;;;;;;3.05;2.40;;;;;;;16.18;21.43;96627.73;1711652;82;22371;-52
2021/01/09 09:38:04;;;;;;;6.08;2.10;;;;;;;16.62;21.03;96613.23;1720812;81;21089;-52
2021/01/09 09:40:34;;;;;;;2.10;1.92;;;;;;;17.25;20.23;96618.53;1719949;82;21141;-51
2021/01/09 09:43:19;;;;;;;2.47;2.22;;;;;;;17.66;19.63;96607.09;1797665;79;21565;-50
2021/01/09 09:46:04;;;;;;;2.70;2.37;;;;;;;18.16;19.27;96610.08;1773122;79;21180;-51
2021/01/09 09:48:36;;;;;;;2.98;2.50;;;;;;;18.32;19.05;96601.45;1744922;79;21363;-52
2021/01/09 09:51:08;;;;;;;3.72;2.37;;;;;;;17.65;19.28;96608.55;1770199;79;21162;-51
2021/01/09 09:53:36;;;;;;;2.72;2.47;;;;;;;16.93;19.89;96607.22;1714193;83;21089;-52
2021/01/09 09:56:17;;;;;;;2.70;2.50;;;;;;;16.87;20.11;96610.42;1709045;84;21157;-52
2021/01/09 09:58:46;;;;;;;2.62;2.42;;;;;;;17.35;19.98;96607.97;1768155;79;21095;-51
2021/01/09 10:01:21;;;;;;;2.60;2.40;;;;;;;17.44;19.70;96604.43;1797680;79;21320;-52
2021/01/09 10:03:49;;;;;;;2.58;2.30;;;;;;;17.01;19.79;96605.19;1795332;79;21073;-51
2021/01/09 10:06:17;;;;;;;3.15;2.37;;;;;;;16.17;20.49;96605.62;1796122;79;21137;-51
2021/01/09 10:08:45;;;;;;;2.77;2.53;;;;;;;15.31;21.19;96610.30;1777509;79;21141;-50
2021/01/09 10:11:12;;;;;;;3.47;2.33;;;;;;;14.53;22.20;96604.92;1713934;83;21193;-52
2021/01/09 10:13:40;;;;;;;2.80;2.55;;;;;;;13.92;22.71;96609.66;1720401;81;21516;-52
2021/01/09 10:16:08;;;;;;;3.80;2.30;;;;;;;13.47;23.20;96612.50;1792367;79;21078;-51
2021/01/09 10:18:36;;;;;;;3.85;2.37;;;;;;;13.34;23.81;96613.52;1766249;79;21136;-51
2021/01/09 10:21:03;;;;;;;2.40;2.17;;;;;;;13.22;23.45;96611.41;1766190;81;21156;-52
2021/01/09 10:23:31;;;;;;;4.08;2.17;;;;;;;13.20;23.66;96610.69;1773061;79;21129;-52
2021/01/09 10:25:59;;;;;;;3.17;1.80;;;;;;;13.56;23.57;96611.77;1826735;78;21055;-52
2021/01/09 10:28:27;;;;;;;3.22;2.45;;;;;;;14.09;22.89;96603.02;1797607;78;21540;-51
2021/01/09 10:30:54;;;;;;;3.25;2.90;;;;;;;14.21;22.85;96605.91;1766214;81;21118;-51
2021/01/09 10:33:22;;;;;;;3.67;2.83;;;;;;;14.12;22.80;96602.77;1784797;79;21152;-51
2021/01/09 10:35:51;;;;;;;3.02;2.60;;;;;;;13.80;22.95;96601.09;1791637;77;21184;-51
2021/01/09 10:38:18;;;;;;;2.62;2.42;;;;;;;13.40;23.33;96606.52;1784735;77;21366;-52
2021/01/09 10:40:46;;;;;;;3.92;2.40;;;;;;;12.96;23.64;96603.54;1784173;79;21073;-51
2021/01/09 10:43:15;;;;;;;;;;;;;;;12.46;23.86;96606.11;1792979;77;21599;-51
2021/01/09 10:45:42;;;;;;;3.60;2.22;;;;;;;11.98;24.27;96601.63;1810248;77;20211;-50
2021/01/09 10:48:10;;;;;;;2.27;2.08;;;;;;;11.46;24.89;96600.64;1732209;80;21184;-51
2021/01/09 10:50:38;;;;;;;2.55;2.35;;;;;;;11.08;25.57;96602.16;1742886;82;21202;-51
2021/01/09 10:53:06;;;;;;;2.60;2.22;;;;;;;10.76;26.15;96600.94;1807300;78;21064;-52
2021/01/09 10:55:36;;;;;;;2.80;2.47;;;;;;;10.47;26.46;96602.50;1811900;79;21097;-52
2021/01/09 10:58:03;;;;;;;4.47;2.80;;;;;;;10.21;26.56;96601.69;1809517;79;21533;-51
2021/01/09 11:00:31;;;;;;;3.47;2.80;;;;;;;9.90;26.68;96602.51;1795928;77;21197;-52
2021/01/09 11:02:59;;;;;;;3.17;2.80;;;;;;;9.57;27.29;96600.39;1734901;82;21391;-51
2021/01/09 11:05:30;;;;;;;3.80;2.90;;;;;;;9.38;27.37;96604.20;1733094;80;21735;-51
2021/01/09 11:07:56;;;;;;;4.12;2.92;;;;;;;9.16;27.48;96597.02;1783825;79;21085;-51
2021/01/09 11:10:26;;;;;;;2.83;2.62;;;;;;;8.96;28.28;96596.16;1792122;79;21060;-51
2021/01/09 11:12:57;;;;;;;4.15;2.77;;;;;;;8.80;28.79;96598.91;1730327;82;21052;-51
2021/01/09 11:15:25;;;;;;;3.65;2.67;;;;;;;8.65;28.66;96595.50;1739486;79;21276;-52
2021/01/09 11:17:52;;;;;;;3.90;3.30;;;;;;;8.50;29.02;96589.53;1798233;79;22057;-51
2021/01/09 11:20:20;;;;;;;8.57;2.77;;;;;;;8.37;29.47;96588.16;1783396;80;21148;-51
2021/01/09 11:22:48;;;;;;;3.05;1.87;;;;;;;8.26;29.21;96589.28;1785853;79;21237;-51
2021/01/09 11:25:15;;;;;;;3.72;2.30;;;;;;;8.21;29.37;96585.68;1805201;79;21493;-53
2021/01/09 11:27:44;;;;;;;2.92;2.47;;;;;;;8.23;29.34;96583.00;1815384;79;21465;-53
2021/01/09 11:30:13;;;;;;;3.17;2.30;;;;;;;8.23;29.61;96581.23;1802958;78;21159;-51
2021/01/09 11:32:41;;;;;;;3.83;2.52;;;;;;;8.20;29.71;96583.19;1790526;79;21245;-52
2021/01/09 11:35:10;;;;;;;4.33;2.08;;;;;;;8.01;29.10;96584.31;1783666;78;21030;-54
2021/01/09 11:37:37;;;;;;;;;;;;;;;7.71;29.59;96580.50;1777317;79;21074;-53
2021/01/09 11:40:07;;;;;;;4.72;2.83;;;;;;;7.53;30.71;96583.70;1765339;81;21326;-51
2021/01/09 11:42:34;;;;;;;3.87;2.85;;;;;;;7.44;31.21;96582.49;1776295;79;21077;-51
2021/01/09 11:45:03;;;;;;;3.05;2.58;;;;;;;7.32;30.54;96577.59;1782718;78;21098;-52
2021/01/09 11:47:31;;;;;;;;;;;;;;;7.06;30.79;96584.23;1730232;81;21168;-52
2021/01/09 11:50:00;;;;;;;2.30;2.10;;;;;;;6.72;31.54;96571.92;1759687;81;20278;-51
2021/01/09 11:52:28;;;;;;;2.30;2.10;;;;;;;6.21;32.44;96579.82;1723583;82;22369;-51